Hayward, WI (54843)

9:10 AM CDT on September 02, 2015 (GMT -0500)
Sawyer County | | Change Station
CLOSE
Current Station
Airport
Location: Hayward,
Elevation: 1214 ft
Nearby Weather Stations

Elev 1214 ft 46.02 °N, 91.45 °W | Updated 17 minutes ago

Mostly Cloudy
Mostly Cloudy
67 °F
Feels Like 67 °F
N
5
Wind Variable Wind from East

Today
High -- | Low -- °F
--% Chance of Precip.
Yesterday
High -- | Low -- °F
Precip. -- in
6:27 AM 7:42 PM
Waning Gibbous, 80% visible
Pressure 29.97 in
Visibility 10.0 miles
Clouds Mostly Cloudy 12000 ft
Dew Point 65 °F
Humidity 93%
Rainfall 1.34 in
Snow Depth Not available.
UV 1 out of 12
Pollen 9.00 out of 12
Air Quality Not available.
Flu Activity Not available.
METAR KHYR 021353Z AUTO 09004KT 10SM BKN120 19/18 A2998 RMK AO2 RAE34 SLP149 P0002 T01940183
Pressure 29.97 in
Visibility 10.0 miles
Clouds Mostly Cloudy 12000 ft
Dew Point 65 °F
Humidity 93%
Rainfall 1.34 in
Snow Depth Not available.
UV 1 out of 12
Pollen 9.00 out of 12
Air Quality Not available.
Flu Activity Not available.
METAR KHYR 021353Z AUTO 09004KT 10SM BKN120 19/18 A2998 RMK AO2 RAE34 SLP149 P0002 T01940183

10-Day Weather Forecast

×

Almanac

Astronomy

Sep. 02, 2015 Rise Set
Actual Time
Civil Twilight
Nautical Twilight
Astronomical Twilight
Moon
Length of Visible Light
Length of Day
Tomorrow will be .
, % of the Moon is Illuminated

Today's Extremes

State Highs State Lows

Community

WunderPhotos

Upload Photos

1,851,759 photos uploaded!

WunderBlogs® & News

Nearby

Air Quality

  Air Quality AQ Index Pollutant
Not available.

Snow Depth

Station Depth Elevation

Earthquake Activity

City Distance Mag. Time & Date
Minimum magnitude displayed is 2.5.

Coastal Water Temperatures

Place Temperature

Stations

Nearby Weather Stations

Station Location Temp. Windchill Dew Point Humidity Wind Precip. Elev Updated Type